Smoky Lake, Canada
Current Conditions -  °F | °C
As of 11:35 AM on Thursday 30 Oct 2014 (Local Time) from CYED Reporting Station
Overcast Overcast  
Wind Chill: 24°   Ceiling: 500
Heat Index: 34°   Visibility: 4mi
Dew Point: 30°   Wind: 15mph
Humidity: 87%   Direction: 130°SE
Pressure: 30.19"   Gusts: NA
Location:  54.11°N, 112.47°W
Report Text: CYED 301735Z AUTO 13013KT 4SM OVC005 01/M01 A3019
Loading
Personal Weather Stations






























Interactive Weather Map
Tropical Storm Tracking
New forecast layout! Learn more

10-Day Weather Forecast

Advertisements
Track Severe Weather on mobile